Roherstown, Pennsylvania
Current Conditions -  °F | °C
As of 3:53 PM on Thursday 20 Nov 2014 (Local Time) from KLNS Reporting Station
Clear Clear  
Wind Chill:   Ceiling: Unl
Heat Index:   Visibility: 10mi
Dew Point: -8°   Wind: 17mph
Humidity: 38%   Direction: 290°WNW
Pressure: 29.9"   Gusts: NA
Location:  40.0115°N, 76.3553°W
Report Text: KLNS 202053Z 29015KT 10SM CLR 05/M08 A2990 RMK AO2 SLP127 6//// T00501083 55000
Loading
Personal Weather Stations






























Interactive Weather Map New forecast layout! Learn more

10-Day Weather Forecast

Advertisements
Track Severe Weather on mobile